createdAt,value
2023-03-28T00:01:45.231Z,99.90
2023-03-28T00:04:12.982Z,99.90
2023-03-28T00:06:41.563Z,99.90
2023-03-28T00:09:09.220Z,99.90
2023-03-28T00:11:35.896Z,99.90
2023-03-28T00:14:03.404Z,99.90
2023-03-28T00:16:33.877Z,99.90
2023-03-28T00:19:02.371Z,99.90
2023-03-28T00:21:32.298Z,99.90
2023-03-28T00:24:04.357Z,99.90
2023-03-28T00:26:34.332Z,99.90
2023-03-28T00:29:02.888Z,99.90
2023-03-28T00:31:30.979Z,99.90
2023-03-28T00:33:58.099Z,99.90
2023-03-28T00:36:29.586Z,99.90
2023-03-28T00:38:57.822Z,99.90
2023-03-28T00:41:26.617Z,99.90
2023-03-28T00:43:55.147Z,99.90
2023-03-28T00:46:26.871Z,99.90
2023-03-28T00:48:57.448Z,99.90
2023-03-28T00:51:30.040Z,99.90
2023-03-28T00:53:59.924Z,99.90
2023-03-28T00:56:29.922Z,99.90
2023-03-28T00:58:58.111Z,99.90
2023-03-28T01:01:24.908Z,99.90
2023-03-28T01:04:02.267Z,99.90
2023-03-28T01:06:32.961Z,99.90
2023-03-28T01:09:04.467Z,99.90
2023-03-28T01:11:32.989Z,99.90
2023-03-28T01:14:02.473Z,99.90
2023-03-28T01:16:32.771Z,99.90
2023-03-28T01:19:03.772Z,99.90
2023-03-28T01:21:33.747Z,99.90
2023-03-28T01:24:17.340Z,99.90
2023-03-28T01:27:17.037Z,99.90
2023-03-28T01:30:22.435Z,99.90
2023-03-28T01:33:08.222Z,99.90
2023-03-28T01:35:49.601Z,99.90
2023-03-28T01:38:48.235Z,99.90
2023-03-28T01:41:23.038Z,99.90
2023-03-28T01:44:18.702Z,99.90
2023-03-28T01:47:11.156Z,99.90
2023-03-28T01:49:52.830Z,99.90
2023-03-28T01:52:28.135Z,99.90
2023-03-28T01:55:06.713Z,99.90
2023-03-28T01:57:50.865Z,99.90
2023-03-28T02:00:43.292Z,99.90
2023-03-28T02:03:21.947Z,99.90
2023-03-28T02:05:50.280Z,99.90
2023-03-28T02:08:18.848Z,99.90
2023-03-28T02:10:48.317Z,99.90
2023-03-28T02:13:19.401Z,99.90
2023-03-28T02:15:51.011Z,99.90
2023-03-28T02:18:29.585Z,99.90
2023-03-28T02:21:04.734Z,99.90
2023-03-28T02:23:44.124Z,99.90
2023-03-28T02:26:12.242Z,99.90
2023-03-28T02:28:41.467Z,99.90
2023-03-28T02:31:08.706Z,99.90
2023-03-28T02:33:37.826Z,99.90
2023-03-28T02:36:31.864Z,99.90
2023-03-28T02:39:28.110Z,99.90
2023-03-28T02:42:15.212Z,99.90
2023-03-28T02:45:18.824Z,99.90
2023-03-28T02:48:07.327Z,99.90
2023-03-28T02:50:49.180Z,99.90
2023-03-28T02:53:27.265Z,99.90
2023-03-28T02:56:04.683Z,99.90
2023-03-28T02:58:38.601Z,99.90
2023-03-28T03:01:10.504Z,99.90
2023-03-28T03:03:37.944Z,99.90
2023-03-28T03:06:05.914Z,99.90
2023-03-28T03:08:32.868Z,99.90
2023-03-28T03:10:59.638Z,99.90
2023-03-28T03:13:26.384Z,99.90
2023-03-28T03:15:56.340Z,99.90
2023-03-28T03:18:23.481Z,99.90
2023-03-28T03:20:50.359Z,99.90
2023-03-28T03:23:17.273Z,99.90
2023-03-28T03:25:45.224Z,99.90
2023-03-28T03:28:12.934Z,99.90
2023-03-28T03:30:39.595Z,99.90
2023-03-28T03:33:06.347Z,99.90
2023-03-28T03:35:33.482Z,99.90
2023-03-28T03:38:00.871Z,99.90
2023-03-28T03:40:27.715Z,99.90
2023-03-28T03:42:54.394Z,99.90
2023-03-28T03:45:22.080Z,99.90
2023-03-28T03:47:48.741Z,99.90
2023-03-28T03:50:15.570Z,99.90
2023-03-28T03:52:42.343Z,99.90
2023-03-28T03:55:09.398Z,99.90
2023-03-28T03:57:36.723Z,99.90
2023-03-28T04:00:11.879Z,99.90
2023-03-28T04:02:39.901Z,99.90
2023-03-28T04:05:09.214Z,99.90
2023-03-28T04:07:36.465Z,99.90
2023-03-28T04:10:03.736Z,99.90
2023-03-28T04:12:30.459Z,99.90
2023-03-28T04:14:57.202Z,99.90
2023-03-28T04:17:29.770Z,99.90
2023-03-28T04:19:56.910Z,99.90
2023-03-28T04:22:23.862Z,99.90
2023-03-28T04:24:53.366Z,99.90
2023-03-28T04:27:20.154Z,99.90
2023-03-28T04:29:46.919Z,99.90
2023-03-28T04:32:13.737Z,99.90
2023-03-28T04:34:40.486Z,99.90
2023-03-28T04:37:09.148Z,99.90
2023-03-28T04:39:35.917Z,99.90
2023-03-28T04:42:05.532Z,99.90
2023-03-28T04:44:32.659Z,99.90
2023-03-28T04:46:59.957Z,99.90
2023-03-28T04:49:27.278Z,99.90
2023-03-28T04:51:54.018Z,99.90
2023-03-28T04:54:21.194Z,99.90
2023-03-28T04:56:48.267Z,99.90
2023-03-28T04:59:16.532Z,99.90
2023-03-28T05:01:49.189Z,99.90
2023-03-28T05:04:19.908Z,99.90
2023-03-28T05:06:47.640Z,99.90
2023-03-28T05:09:15.219Z,99.90
2023-03-28T05:11:42.782Z,99.90
2023-03-28T05:14:09.583Z,99.90
2023-03-28T05:16:36.410Z,99.90
2023-03-28T05:19:03.790Z,99.90
2023-03-28T05:21:30.583Z,99.90
2023-03-28T05:23:57.340Z,99.90
2023-03-28T05:26:24.025Z,99.90
2023-03-28T05:28:50.924Z,99.90
2023-03-28T05:31:17.774Z,99.90
2023-03-28T05:33:44.573Z,99.90
2023-03-28T05:36:12.851Z,99.90
2023-03-28T05:38:39.654Z,99.90
2023-03-28T05:41:06.727Z,99.90
2023-03-28T05:43:33.424Z,99.90
2023-03-28T05:46:00.420Z,99.90
2023-03-28T05:48:27.243Z,99.90
2023-03-28T05:50:54.015Z,99.90
2023-03-28T05:53:20.684Z,99.90
2023-03-28T05:55:48.561Z,99.90
2023-03-28T05:58:16.121Z,99.90
2023-03-28T06:00:44.606Z,99.90
2023-03-28T06:03:16.360Z,99.90
2023-03-28T06:05:44.336Z,99.90
2023-03-28T06:08:11.771Z,99.90
2023-03-28T06:10:38.848Z,99.90
2023-03-28T06:13:05.665Z,99.90
2023-03-28T06:15:32.875Z,99.90
2023-03-28T06:17:59.703Z,99.90
2023-03-28T06:20:26.434Z,99.90
2023-03-28T06:22:53.101Z,99.90
2023-03-28T06:25:19.954Z,99.90
2023-03-28T06:27:46.671Z,99.90
2023-03-28T06:30:14.109Z,99.90
2023-03-28T06:32:41.092Z,99.90
2023-03-28T06:35:08.394Z,99.90
2023-03-28T06:37:35.065Z,99.90
2023-03-28T06:40:01.918Z,99.90
2023-03-28T06:42:28.674Z,99.90
2023-03-28T06:44:55.462Z,99.90
2023-03-28T06:47:22.332Z,99.90
2023-03-28T06:49:49.719Z,99.90
2023-03-28T06:52:16.891Z,99.90
2023-03-28T06:54:43.586Z,99.90
2023-03-28T06:57:10.470Z,99.90
2023-03-28T06:59:37.168Z,1.00
2023-03-28T07:02:03.947Z,1.00
2023-03-28T07:04:32.687Z,99.90
2023-03-28T07:06:59.420Z,1.00
2023-03-28T07:09:26.163Z,1.00
2023-03-28T07:11:53.201Z,1.00
2023-03-28T07:14:20.107Z,99.90
2023-03-28T07:16:46.803Z,1.00
2023-03-28T07:19:13.515Z,99.90
2023-03-28T07:21:40.169Z,99.90
2023-03-28T07:24:07.238Z,1.00
2023-03-28T07:26:34.043Z,84.30
2023-03-28T07:29:00.914Z,1.00
2023-03-28T07:31:27.980Z,1.00
2023-03-28T07:33:58.763Z,1.00
2023-03-28T07:36:27.617Z,99.90
2023-03-28T07:38:54.683Z,99.90
2023-03-28T07:41:22.594Z,99.90
2023-03-28T07:43:49.556Z,1.00
2023-03-28T07:46:16.391Z,1.00
2023-03-28T07:48:43.953Z,1.00
2023-03-28T07:51:11.286Z,1.00
2023-03-28T07:53:38.220Z,1.00
2023-03-28T07:56:05.829Z,1.00
2023-03-28T07:58:32.564Z,1.00
2023-03-28T08:01:08.175Z,1.00
2023-03-28T08:03:36.221Z,99.90
2023-03-28T08:06:09.419Z,99.90
2023-03-28T08:08:43.698Z,99.90
2023-03-28T08:11:13.405Z,99.90
2023-03-28T08:13:40.246Z,99.90
2023-03-28T08:16:07.491Z,99.90
2023-03-28T08:18:34.240Z,99.90
2023-03-28T08:21:03.081Z,99.90
2023-03-28T08:23:30.127Z,99.90
2023-03-28T08:26:07.399Z,99.90
2023-03-28T08:28:35.844Z,99.90
2023-03-28T08:31:09.427Z,99.90
2023-03-28T08:33:36.191Z,99.90
2023-03-28T08:36:03.170Z,99.90
2023-03-28T08:38:29.939Z,99.90
2023-03-28T08:41:18.323Z,99.90
2023-03-28T08:44:02.928Z,99.90
2023-03-28T08:46:31.890Z,99.90
2023-03-28T08:49:01.078Z,99.90
2023-03-28T08:51:35.533Z,90.90
2023-03-28T08:54:11.086Z,89.60
2023-03-28T08:56:44.949Z,53.00
2023-03-28T08:59:15.886Z,53.20
2023-03-28T09:01:44.187Z,41.30
2023-03-28T09:04:34.903Z,1.00
2023-03-28T09:07:28.701Z,1.00
2023-03-28T09:10:17.865Z,1.00
2023-03-28T09:12:50.818Z,1.00
2023-03-28T09:15:37.505Z,1.00
2023-03-28T09:18:31.763Z,1.00
2023-03-28T09:21:09.983Z,1.00
2023-03-28T09:24:01.345Z,1.00
2023-03-28T09:26:34.360Z,1.00
2023-03-28T09:29:04.082Z,1.00
2023-03-28T09:31:41.119Z,1.00
2023-03-28T09:34:12.660Z,1.00
2023-03-28T09:36:48.951Z,1.00
2023-03-28T09:39:40.103Z,1.00
2023-03-28T09:42:25.360Z,1.00
2023-03-28T09:45:02.443Z,1.00
2023-03-28T09:47:29.246Z,1.00
2023-03-28T09:50:09.578Z,1.00
2023-03-28T09:52:39.860Z,1.00
2023-03-28T09:55:16.636Z,1.00
2023-03-28T09:57:59.113Z,1.00
2023-03-28T10:00:25.967Z,1.00
2023-03-28T10:02:53.634Z,1.00
2023-03-28T10:05:40.916Z,1.00
2023-03-28T10:08:28.248Z,1.00
2023-03-28T10:11:05.036Z,1.00
2023-03-28T10:13:37.002Z,1.00
2023-03-28T10:16:06.102Z,1.00
2023-03-28T10:18:33.561Z,1.00
2023-03-28T10:21:27.423Z,1.00
2023-03-28T10:23:59.678Z,1.00
2023-03-28T10:26:27.496Z,1.00
2023-03-28T10:28:58.194Z,1.00
2023-03-28T10:31:30.654Z,1.00
2023-03-28T10:33:59.635Z,1.00
2023-03-28T10:36:31.576Z,1.00
2023-03-28T10:41:29.432Z,1.00
2023-03-28T10:43:57.243Z,1.00
2023-03-28T10:46:32.534Z,1.00
2023-03-28T10:49:04.592Z,1.00
2023-03-28T10:51:33.067Z,1.00
2023-03-28T10:54:27.770Z,1.00
2023-03-28T10:57:08.195Z,1.00
2023-03-28T10:59:41.544Z,1.00
2023-03-28T11:02:28.544Z,1.00
2023-03-28T11:05:32.647Z,1.00
2023-03-28T11:08:02.037Z,1.00
2023-03-28T11:10:42.287Z,1.00
2023-03-28T11:13:28.931Z,1.00
2023-03-28T11:16:11.042Z,1.00
2023-03-28T11:18:54.382Z,1.00
2023-03-28T11:21:46.323Z,1.00
2023-03-28T11:24:47.434Z,1.00
2023-03-28T11:27:30.816Z,1.00
2023-03-28T11:30:24.138Z,1.00
2023-03-28T11:33:14.103Z,1.00
2023-03-28T11:35:57.805Z,1.00
2023-03-28T11:38:27.100Z,1.00
2023-03-28T11:41:07.098Z,1.00
2023-03-28T11:43:39.505Z,1.00
2023-03-28T11:46:12.108Z,1.00
2023-03-28T11:48:55.747Z,1.00
2023-03-28T11:51:55.110Z,1.00
2023-03-28T11:54:32.319Z,1.00
2023-03-28T11:57:08.136Z,1.00
2023-03-28T11:59:52.657Z,1.00
2023-03-28T12:02:36.279Z,1.00
2023-03-28T12:05:07.893Z,1.00
2023-03-28T12:08:08.195Z,1.00
2023-03-28T12:10:36.672Z,1.00
2023-03-28T12:13:18.558Z,1.00
2023-03-28T12:15:53.512Z,1.00
2023-03-28T12:18:36.343Z,1.00
2023-03-28T12:21:14.829Z,1.00
2023-03-28T12:24:06.918Z,1.00
2023-03-28T12:26:48.847Z,1.00
2023-03-28T12:29:28.004Z,1.00
2023-03-28T12:32:03.255Z,1.00
2023-03-28T12:34:34.092Z,1.00
2023-03-28T12:37:12.987Z,1.00
2023-03-28T12:39:45.257Z,1.00
2023-03-28T12:42:14.431Z,1.00
2023-03-28T12:45:06.573Z,1.00
2023-03-28T12:47:38.933Z,1.00
2023-03-28T12:50:12.737Z,1.00
2023-03-28T12:52:42.263Z,1.00
2023-03-28T12:55:31.431Z,1.00
2023-03-28T12:58:43.861Z,1.00
2023-03-28T13:01:34.913Z,1.00
2023-03-28T13:04:10.250Z,1.00
2023-03-28T13:09:26.268Z,1.00
2023-03-28T13:11:53.320Z,1.00
2023-03-28T13:14:36.596Z,1.00
2023-03-28T13:17:03.221Z,1.00
2023-03-28T13:19:41.666Z,1.00
2023-03-28T13:22:30.003Z,1.00
2023-03-28T13:25:29.496Z,1.00
2023-03-28T13:27:57.582Z,1.00
2023-03-28T13:30:30.219Z,1.00
2023-03-28T13:33:19.167Z,1.00
2023-03-28T13:35:49.435Z,1.00
2023-03-28T13:38:58.250Z,1.00
2023-03-28T13:41:43.770Z,1.00
2023-03-28T13:44:20.129Z,1.00
2023-03-28T13:46:54.137Z,1.00
2023-03-28T13:49:23.529Z,1.00
2023-03-28T13:51:58.566Z,1.00
2023-03-28T13:54:28.257Z,1.00
2023-03-28T13:57:02.120Z,1.00
2023-03-28T13:59:44.100Z,1.00
2023-03-28T14:02:31.077Z,1.00
2023-03-28T14:05:18.773Z,1.00
2023-03-28T14:07:45.943Z,1.00
2023-03-28T14:10:33.934Z,1.00
2023-03-28T14:13:13.420Z,1.00
2023-03-28T14:15:40.960Z,1.00
2023-03-28T14:18:17.446Z,1.00
2023-03-28T14:20:46.354Z,1.00
2023-03-28T14:23:38.051Z,1.00
2023-03-28T14:26:27.091Z,1.00
2023-03-28T14:29:00.584Z,1.00
2023-03-28T14:31:37.109Z,1.00
2023-03-28T14:34:23.894Z,1.00
2023-03-28T14:37:06.259Z,1.00
2023-03-28T14:39:35.681Z,1.00
2023-03-28T14:42:05.594Z,1.00
2023-03-28T14:44:37.377Z,1.00
2023-03-28T14:47:04.459Z,1.00
2023-03-28T14:49:31.569Z,1.00
2023-03-28T14:52:00.241Z,1.00
2023-03-28T14:54:34.804Z,1.00
2023-03-28T14:57:03.934Z,1.00
2023-03-28T14:59:46.510Z,1.00
2023-03-28T15:02:35.315Z,1.00
2023-03-28T15:05:07.716Z,1.00
2023-03-28T15:07:36.606Z,1.00
2023-03-28T15:10:04.462Z,1.00
2023-03-28T15:12:32.991Z,1.00
2023-03-28T15:15:01.856Z,1.00
2023-03-28T15:17:28.718Z,1.00
2023-03-28T15:19:59.277Z,1.00
2023-03-28T15:22:29.996Z,1.00
2023-03-28T15:24:57.631Z,1.00
2023-03-28T15:27:33.499Z,1.00
2023-03-28T15:30:23.239Z,1.00
2023-03-28T15:32:51.609Z,1.00
2023-03-28T15:35:40.411Z,1.00
2023-03-28T15:38:27.192Z,1.00
2023-03-28T15:41:07.973Z,1.00
2023-03-28T15:43:41.355Z,1.00
2023-03-28T15:46:15.322Z,1.00
2023-03-28T15:48:42.963Z,1.00
2023-03-28T15:51:18.345Z,1.00
2023-03-28T15:53:47.290Z,1.00
2023-03-28T15:56:30.676Z,1.00
2023-03-28T15:59:03.875Z,1.00
2023-03-28T16:01:33.272Z,1.00
2023-03-28T16:04:38.668Z,1.00
2023-03-28T16:07:12.385Z,1.00
2023-03-28T16:09:43.292Z,1.00
2023-03-28T16:12:15.180Z,1.00
2023-03-28T16:14:46.706Z,1.00
2023-03-28T16:22:08.732Z,1.00
2023-03-28T16:24:35.669Z,1.00
2023-03-28T16:27:02.914Z,1.00
2023-03-28T16:29:29.594Z,1.00
2023-03-28T16:34:23.402Z,1.00
2023-03-28T16:46:42.408Z,1.00
2023-03-28T16:56:31.353Z,1.00
2023-03-28T16:58:58.062Z,1.00
2023-03-28T17:01:24.934Z,1.00
2023-03-28T17:11:15.227Z,1.00
2023-03-28T17:13:42.912Z,1.00
2023-03-28T17:21:10.690Z,1.00
2023-03-28T17:23:38.726Z,1.00
2023-03-28T17:26:07.718Z,1.00
2023-03-28T17:28:39.058Z,1.00
2023-03-28T17:31:11.041Z,1.00
2023-03-28T17:36:22.294Z,1.00
2023-03-28T17:38:54.737Z,1.00
2023-03-28T17:41:24.880Z,1.00
2023-03-28T17:43:53.685Z,1.00
2023-03-28T17:48:48.897Z,1.00
2023-03-28T17:51:16.288Z,1.00
2023-03-28T17:53:44.546Z,1.00
2023-03-28T17:56:11.826Z,1.00
2023-03-28T17:58:38.626Z,1.00
2023-03-28T18:01:09.962Z,1.00
2023-03-28T18:03:39.061Z,1.00
2023-03-28T18:08:35.005Z,1.00
2023-03-28T18:11:07.340Z,1.00
2023-03-28T18:13:35.915Z,1.00
2023-03-28T18:18:33.499Z,1.00
2023-03-28T18:23:27.620Z,1.00
2023-03-28T18:25:54.361Z,1.00
2023-03-28T18:30:51.174Z,1.00
2023-03-28T18:33:19.154Z,1.00
2023-03-28T18:35:46.898Z,1.00
2023-03-28T18:40:41.956Z,1.00
2023-03-28T18:43:09.418Z,1.00
2023-03-28T18:57:53.019Z,1.00
2023-03-28T19:00:20.404Z,1.00
2023-03-28T19:02:49.067Z,1.00
2023-03-28T19:05:16.972Z,1.00
2023-03-28T19:10:29.906Z,1.00
2023-03-28T19:15:24.354Z,1.00
2023-03-28T19:20:18.545Z,20.50
2023-03-28T19:25:12.440Z,99.90
2023-03-28T19:27:39.171Z,99.90
2023-03-28T19:30:08.037Z,99.90
2023-03-28T19:32:34.755Z,99.90
2023-03-28T19:42:26.216Z,1.00
2023-03-28T19:44:53.224Z,1.00
2023-03-28T19:47:19.868Z,1.00
2023-03-28T19:54:40.989Z,12.30
2023-03-28T19:57:08.445Z,99.90
2023-03-28T20:02:02.481Z,99.90
2023-03-28T20:04:29.450Z,1.00
2023-03-28T20:06:56.214Z,99.90
2023-03-28T20:11:51.015Z,99.90
2023-03-28T20:26:39.860Z,99.90
2023-03-28T20:39:00.861Z,99.90
2023-03-28T20:41:29.894Z,99.90
2023-03-28T20:44:03.473Z,99.90
2023-03-28T20:46:32.378Z,99.90
2023-03-28T20:49:00.114Z,99.90
2023-03-28T20:51:29.635Z,99.90
2023-03-28T20:53:58.939Z,99.90
2023-03-28T20:56:28.965Z,99.90
2023-03-28T20:58:58.219Z,99.90
2023-03-28T21:01:27.983Z,99.90
2023-03-28T21:03:59.783Z,99.90
2023-03-28T21:06:33.583Z,1.00
2023-03-28T21:09:02.587Z,1.00
2023-03-28T21:11:31.753Z,1.00
2023-03-28T21:14:00.219Z,1.00
2023-03-28T21:16:27.668Z,99.90
2023-03-28T21:23:49.390Z,99.90
2023-03-28T21:26:21.336Z,1.00
2023-03-28T21:31:21.140Z,1.00
2023-03-28T21:33:49.029Z,99.90
2023-03-28T21:36:17.832Z,99.90
2023-03-28T21:41:13.087Z,99.90
2023-03-28T21:43:40.078Z,1.00
2023-03-28T21:46:08.091Z,1.00
2023-03-28T21:48:36.695Z,99.90
2023-03-28T21:53:33.731Z,99.90
2023-03-28T21:56:00.461Z,99.90
2023-03-28T21:58:30.829Z,23.30
2023-03-28T22:03:26.401Z,99.90
2023-03-28T22:05:54.441Z,99.90
2023-03-28T22:08:22.360Z,99.90
2023-03-28T22:10:54.664Z,57.20
2023-03-28T22:15:52.483Z,1.00
2023-03-28T22:18:20.280Z,99.90
2023-03-28T22:20:53.364Z,99.90
2023-03-28T22:23:24.335Z,1.00
2023-03-28T22:25:52.685Z,1.00
2023-03-28T22:28:23.996Z,1.00
2023-03-28T22:30:53.484Z,1.00
2023-03-28T22:35:48.179Z,99.90
2023-03-28T22:40:42.247Z,1.00
2023-03-28T22:43:09.033Z,99.90
2023-03-28T22:45:37.036Z,99.90
2023-03-28T22:48:04.004Z,99.90
2023-03-28T22:50:33.499Z,1.00
2023-03-28T22:53:02.285Z,1.00
2023-03-28T22:55:29.240Z,1.00
2023-03-28T22:57:55.992Z,1.00
2023-03-28T23:00:23.180Z,1.00
2023-03-28T23:02:53.652Z,1.00
2023-03-28T23:05:20.614Z,1.00
2023-03-28T23:07:47.668Z,1.00
2023-03-28T23:10:19.877Z,1.00
2023-03-28T23:12:48.581Z,1.00
2023-03-28T23:15:15.452Z,99.90
2023-03-28T23:17:42.780Z,1.00
2023-03-28T23:20:14.612Z,1.00
2023-03-28T23:22:43.099Z,1.00
2023-03-28T23:25:12.399Z,1.00
2023-03-28T23:27:39.732Z,1.00
2023-03-28T23:30:07.644Z,1.00
2023-03-28T23:32:34.505Z,1.00
2023-03-28T23:35:01.491Z,1.00
2023-03-28T23:37:28.706Z,1.00
2023-03-28T23:39:56.354Z,1.00
2023-03-28T23:42:24.351Z,1.00
2023-03-28T23:44:51.821Z,1.00
2023-03-28T23:47:20.292Z,1.00
2023-03-28T23:49:47.443Z,1.00
2023-03-28T23:52:14.305Z,1.00
2023-03-28T23:54:41.114Z,1.00
2023-03-28T23:57:08.872Z,1.00
2023-03-28T23:59:36.423Z,1.00
